sensor_id;sensor_type;location;lat;lon;timestamp;temperature;humidity
12164;DHT22;6145;50.192;10.064;2023-05-15T00:01:56;14.20;78.50
12164;DHT22;6145;50.192;10.064;2023-05-15T00:04:26;14.10;78.50
12164;DHT22;6145;50.192;10.064;2023-05-15T00:06:53;14.00;78.50
12164;DHT22;6145;50.192;10.064;2023-05-15T00:09:21;14.00;78.70
12164;DHT22;6145;50.192;10.064;2023-05-15T00:11:48;14.00;78.80
12164;DHT22;6145;50.192;10.064;2023-05-15T00:14:15;14.00;78.70
12164;DHT22;6145;50.192;10.064;2023-05-15T00:16:42;14.10;79.60
12164;DHT22;6145;50.192;10.064;2023-05-15T00:19:09;13.90;78.70
12164;DHT22;6145;50.192;10.064;2023-05-15T00:21:36;13.90;78.80
12164;DHT22;6145;50.192;10.064;2023-05-15T00:24:03;13.90;78.70
12164;DHT22;6145;50.192;10.064;2023-05-15T00:26:32;13.90;78.80
12164;DHT22;6145;50.192;10.064;2023-05-15T00:28:58;13.90;78.80
12164;DHT22;6145;50.192;10.064;2023-05-15T00:31:27;14.50;79.50
12164;DHT22;6145;50.192;10.064;2023-05-15T00:33:53;14.30;79.20
12164;DHT22;6145;50.192;10.064;2023-05-15T00:36:21;13.80;78.70
12164;DHT22;6145;50.192;10.064;2023-05-15T00:38:50;13.80;78.80
12164;DHT22;6145;50.192;10.064;2023-05-15T00:41:19;13.80;78.80
12164;DHT22;6145;50.192;10.064;2023-05-15T00:43:49;13.70;78.70
12164;DHT22;6145;50.192;10.064;2023-05-15T00:46:17;13.70;78.70
12164;DHT22;6145;50.192;10.064;2023-05-15T00:48:45;13.70;78.70
12164;DHT22;6145;50.192;10.064;2023-05-15T00:51:14;13.70;78.70
12164;DHT22;6145;50.192;10.064;2023-05-15T00:53:42;13.60;78.70
12164;DHT22;6145;50.192;10.064;2023-05-15T00:56:10;13.60;78.80
12164;DHT22;6145;50.192;10.064;2023-05-15T00:58:38;13.50;78.90
12164;DHT22;6145;50.192;10.064;2023-05-15T01:01:06;13.60;79.10
12164;DHT22;6145;50.192;10.064;2023-05-15T01:03:33;13.50;79.30
12164;DHT22;6145;50.192;10.064;2023-05-15T01:06:01;13.50;79.00
12164;DHT22;6145;50.192;10.064;2023-05-15T01:08:35;13.50;79.00
12164;DHT22;6145;50.192;10.064;2023-05-15T01:11:05;13.50;79.80
12164;DHT22;6145;50.192;10.064;2023-05-15T01:13:33;13.40;79.10
12164;DHT22;6145;50.192;10.064;2023-05-15T01:15:59;13.40;79.10
12164;DHT22;6145;50.192;10.064;2023-05-15T01:18:28;13.50;79.20
12164;DHT22;6145;50.192;10.064;2023-05-15T01:24:15;13.30;79.00
12164;DHT22;6145;50.192;10.064;2023-05-15T01:29:56;13.20;79.30
12164;DHT22;6145;50.192;10.064;2023-05-15T01:32:31;13.20;79.30
12164;DHT22;6145;50.192;10.064;2023-05-15T01:35:07;13.10;79.00
12164;DHT22;6145;50.192;10.064;2023-05-15T01:37:38;13.10;79.20
12164;DHT22;6145;50.192;10.064;2023-05-15T01:40:09;13.10;79.30
12164;DHT22;6145;50.192;10.064;2023-05-15T01:42:41;13.10;79.20
12164;DHT22;6145;50.192;10.064;2023-05-15T01:45:11;13.00;79.40
12164;DHT22;6145;50.192;10.064;2023-05-15T01:47:40;13.00;79.30
12164;DHT22;6145;50.192;10.064;2023-05-15T01:50:12;12.90;79.30
12164;DHT22;6145;50.192;10.064;2023-05-15T01:52:42;12.90;79.30
12164;DHT22;6145;50.192;10.064;2023-05-15T01:55:11;12.80;79.20
12164;DHT22;6145;50.192;10.064;2023-05-15T01:57:40;12.90;79.30
12164;DHT22;6145;50.192;10.064;2023-05-15T02:00:11;12.80;79.30
12164;DHT22;6145;50.192;10.064;2023-05-15T02:02:38;12.80;79.20
12164;DHT22;6145;50.192;10.064;2023-05-15T02:05:07;13.20;79.60
12164;DHT22;6145;50.192;10.064;2023-05-15T02:07:35;12.80;79.10
12164;DHT22;6145;50.192;10.064;2023-05-15T02:10:02;12.70;79.00
12164;DHT22;6145;50.192;10.064;2023-05-15T02:12:30;12.70;79.00
12164;DHT22;6145;50.192;10.064;2023-05-15T02:14:58;12.70;79.30
12164;DHT22;6145;50.192;10.064;2023-05-15T02:17:28;12.60;79.60
12164;DHT22;6145;50.192;10.064;2023-05-15T02:19:55;12.60;79.70
12164;DHT22;6145;50.192;10.064;2023-05-15T02:22:23;12.60;79.60
12164;DHT22;6145;50.192;10.064;2023-05-15T02:24:50;12.60;79.80
12164;DHT22;6145;50.192;10.064;2023-05-15T02:27:21;12.60;79.80
12164;DHT22;6145;50.192;10.064;2023-05-15T02:29:58;12.60;79.80
12164;DHT22;6145;50.192;10.064;2023-05-15T02:32:34;12.60;80.30
12164;DHT22;6145;50.192;10.064;2023-05-15T02:35:13;12.60;80.60
12164;DHT22;6145;50.192;10.064;2023-05-15T02:37:46;12.60;80.50
12164;DHT22;6145;50.192;10.064;2023-05-15T02:40:14;13.00;80.90
12164;DHT22;6145;50.192;10.064;2023-05-15T02:42:43;12.60;80.40
12164;DHT22;6145;50.192;10.064;2023-05-15T02:45:11;12.50;80.40
12164;DHT22;6145;50.192;10.064;2023-05-15T02:47:40;12.50;80.40
12164;DHT22;6145;50.192;10.064;2023-05-15T02:50:08;12.50;80.40
12164;DHT22;6145;50.192;10.064;2023-05-15T02:52:35;12.50;80.50
12164;DHT22;6145;50.192;10.064;2023-05-15T02:55:03;13.90;82.00
12164;DHT22;6145;50.192;10.064;2023-05-15T02:57:30;12.50;80.60
12164;DHT22;6145;50.192;10.064;2023-05-15T02:59:57;12.90;81.30
12164;DHT22;6145;50.192;10.064;2023-05-15T03:02:24;12.50;81.00
12164;DHT22;6145;50.192;10.064;2023-05-15T03:04:52;12.50;81.10
12164;DHT22;6145;50.192;10.064;2023-05-15T03:07:19;12.50;81.30
12164;DHT22;6145;50.192;10.064;2023-05-15T03:09:48;13.50;82.40
12164;DHT22;6145;50.192;10.064;2023-05-15T03:12:14;13.10;82.00
12164;DHT22;6145;50.192;10.064;2023-05-15T03:14:41;12.50;81.50
12164;DHT22;6145;50.192;10.064;2023-05-15T03:17:08;12.80;82.50
12164;DHT22;6145;50.192;10.064;2023-05-15T03:19:35;13.00;81.90
12164;DHT22;6145;50.192;10.064;2023-05-15T03:22:03;12.50;81.50
12164;DHT22;6145;50.192;10.064;2023-05-15T03:24:32;12.50;81.50
12164;DHT22;6145;50.192;10.064;2023-05-15T03:26:59;12.40;81.20
12164;DHT22;6145;50.192;10.064;2023-05-15T03:29:26;12.40;81.30
12164;DHT22;6145;50.192;10.064;2023-05-15T03:31:53;12.40;81.30
12164;DHT22;6145;50.192;10.064;2023-05-15T03:34:20;12.40;81.20
12164;DHT22;6145;50.192;10.064;2023-05-15T03:36:47;12.40;81.20
12164;DHT22;6145;50.192;10.064;2023-05-15T03:39:16;12.40;81.30
12164;DHT22;6145;50.192;10.064;2023-05-15T03:41:43;12.40;81.20
12164;DHT22;6145;50.192;10.064;2023-05-15T03:44:11;12.40;81.40
12164;DHT22;6145;50.192;10.064;2023-05-15T03:46:38;12.40;81.50
12164;DHT22;6145;50.192;10.064;2023-05-15T03:49:05;12.50;81.70
12164;DHT22;6145;50.192;10.064;2023-05-15T03:51:32;12.30;81.40
12164;DHT22;6145;50.192;10.064;2023-05-15T03:54:00;12.30;81.50
12164;DHT22;6145;50.192;10.064;2023-05-15T03:56:31;12.40;81.40
12164;DHT22;6145;50.192;10.064;2023-05-15T03:58:58;12.30;81.50
12164;DHT22;6145;50.192;10.064;2023-05-15T04:01:25;12.30;81.40
12164;DHT22;6145;50.192;10.064;2023-05-15T04:03:52;12.20;81.30
12164;DHT22;6145;50.192;10.064;2023-05-15T04:06:19;12.40;81.50
12164;DHT22;6145;50.192;10.064;2023-05-15T04:08:47;12.40;81.50
12164;DHT22;6145;50.192;10.064;2023-05-15T04:11:15;12.20;81.30
12164;DHT22;6145;50.192;10.064;2023-05-15T04:13:45;12.30;81.30
12164;DHT22;6145;50.192;10.064;2023-05-15T04:16:12;12.20;81.00
12164;DHT22;6145;50.192;10.064;2023-05-15T04:18:39;12.20;81.10
12164;DHT22;6145;50.192;10.064;2023-05-15T04:21:07;12.20;81.30
12164;DHT22;6145;50.192;10.064;2023-05-15T04:23:34;13.10;82.20
12164;DHT22;6145;50.192;10.064;2023-05-15T04:26:01;12.20;81.40
12164;DHT22;6145;50.192;10.064;2023-05-15T04:28:27;12.20;81.40
12164;DHT22;6145;50.192;10.064;2023-05-15T04:30:56;12.10;81.20
12164;DHT22;6145;50.192;10.064;2023-05-15T04:33:23;12.20;81.30
12164;DHT22;6145;50.192;10.064;2023-05-15T04:35:50;12.10;81.00
12164;DHT22;6145;50.192;10.064;2023-05-15T04:38:17;12.10;81.20
12164;DHT22;6145;50.192;10.064;2023-05-15T04:40:44;12.20;81.20
12164;DHT22;6145;50.192;10.064;2023-05-15T04:43:11;12.30;81.30
12164;DHT22;6145;50.192;10.064;2023-05-15T04:45:39;12.10;81.30
12164;DHT22;6145;50.192;10.064;2023-05-15T04:48:07;12.10;81.30
12164;DHT22;6145;50.192;10.064;2023-05-15T04:50:37;12.10;81.30
12164;DHT22;6145;50.192;10.064;2023-05-15T04:53:04;12.70;82.00
12164;DHT22;6145;50.192;10.064;2023-05-15T04:55:31;12.10;81.40
12164;DHT22;6145;50.192;10.064;2023-05-15T04:57:58;12.90;82.20
12164;DHT22;6145;50.192;10.064;2023-05-15T05:00:25;12.10;81.50
12164;DHT22;6145;50.192;10.064;2023-05-15T05:02:52;12.10;81.50
12164;DHT22;6145;50.192;10.064;2023-05-15T05:05:21;12.10;81.40
12164;DHT22;6145;50.192;10.064;2023-05-15T05:07:47;12.10;81.70
12164;DHT22;6145;50.192;10.064;2023-05-15T05:10:16;12.20;81.70
12164;DHT22;6145;50.192;10.064;2023-05-15T05:12:43;12.30;81.70
12164;DHT22;6145;50.192;10.064;2023-05-15T05:15:11;12.10;81.60
12164;DHT22;6145;50.192;10.064;2023-05-15T05:17:37;12.10;81.60
12164;DHT22;6145;50.192;10.064;2023-05-15T05:20:05;12.10;81.50
12164;DHT22;6145;50.192;10.064;2023-05-15T05:22:36;12.10;81.60
12164;DHT22;6145;50.192;10.064;2023-05-15T05:25:05;12.10;81.80
12164;DHT22;6145;50.192;10.064;2023-05-15T05:27:32;12.10;81.90
12164;DHT22;6145;50.192;10.064;2023-05-15T05:29:59;12.10;81.90
12164;DHT22;6145;50.192;10.064;2023-05-15T05:32:26;12.10;81.90
12164;DHT22;6145;50.192;10.064;2023-05-15T05:34:54;12.00;81.80
12164;DHT22;6145;50.192;10.064;2023-05-15T05:37:21;12.10;82.00
12164;DHT22;6145;50.192;10.064;2023-05-15T05:39:50;12.10;82.10
12164;DHT22;6145;50.192;10.064;2023-05-15T05:42:17;12.10;82.30
12164;DHT22;6145;50.192;10.064;2023-05-15T05:44:45;12.30;82.50
12164;DHT22;6145;50.192;10.064;2023-05-15T05:47:12;12.20;82.90
12164;DHT22;6145;50.192;10.064;2023-05-15T05:49:39;12.20;82.90
12164;DHT22;6145;50.192;10.064;2023-05-15T05:52:07;12.20;83.30
12164;DHT22;6145;50.192;10.064;2023-05-15T05:54:34;12.20;83.50
12164;DHT22;6145;50.192;10.064;2023-05-15T05:57:05;12.30;83.70
12164;DHT22;6145;50.192;10.064;2023-05-15T05:59:36;12.30;83.60
12164;DHT22;6145;50.192;10.064;2023-05-15T06:02:05;12.30;84.00
12164;DHT22;6145;50.192;10.064;2023-05-15T06:04:33;12.20;83.90
12164;DHT22;6145;50.192;10.064;2023-05-15T06:07:02;11.60;84.20
12164;DHT22;6145;50.192;10.064;2023-05-15T06:09:32;12.20;85.10
12164;DHT22;6145;50.192;10.064;2023-05-15T06:11:59;12.20;85.50
12164;DHT22;6145;50.192;10.064;2023-05-15T06:14:45;12.30;85.70
12164;DHT22;6145;50.192;10.064;2023-05-15T06:17:12;12.40;85.80
12164;DHT22;6145;50.192;10.064;2023-05-15T06:19:39;12.40;85.60
12164;DHT22;6145;50.192;10.064;2023-05-15T06:22:06;12.40;85.40
12164;DHT22;6145;50.192;10.064;2023-05-15T06:24:33;13.30;87.00
12164;DHT22;6145;50.192;10.064;2023-05-15T06:27:00;12.40;86.80
12164;DHT22;6145;50.192;10.064;2023-05-15T06:29:27;12.50;87.60
12164;DHT22;6145;50.192;10.064;2023-05-15T06:31:56;13.30;88.30
12164;DHT22;6145;50.192;10.064;2023-05-15T06:34:22;12.70;87.50
12164;DHT22;6145;50.192;10.064;2023-05-15T06:36:49;12.80;87.10
12164;DHT22;6145;50.192;10.064;2023-05-15T06:39:17;13.30;89.30
12164;DHT22;6145;50.192;10.064;2023-05-15T06:41:43;13.20;91.30
12164;DHT22;6145;50.192;10.064;2023-05-15T06:44:10;13.60;91.90
12164;DHT22;6145;50.192;10.064;2023-05-15T06:46:37;13.90;91.90
12164;DHT22;6145;50.192;10.064;2023-05-15T06:49:06;14.30;91.60
12164;DHT22;6145;50.192;10.064;2023-05-15T06:51:33;14.70;90.90
12164;DHT22;6145;50.192;10.064;2023-05-15T06:54:00;15.10;90.30
12164;DHT22;6145;50.192;10.064;2023-05-15T06:56:26;15.30;90.80
12164;DHT22;6145;50.192;10.064;2023-05-15T06:58:54;15.60;90.70
12164;DHT22;6145;50.192;10.064;2023-05-15T07:01:21;16.00;89.00
12164;DHT22;6145;50.192;10.064;2023-05-15T07:03:50;16.20;85.30
12164;DHT22;6145;50.192;10.064;2023-05-15T07:06:18;16.30;87.90
12164;DHT22;6145;50.192;10.064;2023-05-15T07:08:45;16.60;85.60
12164;DHT22;6145;50.192;10.064;2023-05-15T07:11:12;16.60;84.90
12164;DHT22;6145;50.192;10.064;2023-05-15T07:13:38;16.70;83.30
12164;DHT22;6145;50.192;10.064;2023-05-15T07:16:06;16.70;84.30
12164;DHT22;6145;50.192;10.064;2023-05-15T07:18:33;16.90;86.30
12164;DHT22;6145;50.192;10.064;2023-05-15T07:21:00;17.60;86.90
12164;DHT22;6145;50.192;10.064;2023-05-15T07:23:28;17.30;84.70
12164;DHT22;6145;50.192;10.064;2023-05-15T07:25:55;17.50;82.60
12164;DHT22;6145;50.192;10.064;2023-05-15T07:28:22;17.70;83.90
12164;DHT22;6145;50.192;10.064;2023-05-15T07:30:49;17.90;85.00
12164;DHT22;6145;50.192;10.064;2023-05-15T07:33:17;18.00;82.10
12164;DHT22;6145;50.192;10.064;2023-05-15T07:35:44;18.20;82.00
12164;DHT22;6145;50.192;10.064;2023-05-15T07:38:11;18.10;83.10
12164;DHT22;6145;50.192;10.064;2023-05-15T07:40:41;18.30;82.10
12164;DHT22;6145;50.192;10.064;2023-05-15T07:43:07;18.40;81.30
12164;DHT22;6145;50.192;10.064;2023-05-15T07:45:35;18.50;82.20
12164;DHT22;6145;50.192;10.064;2023-05-15T07:48:12;18.70;81.50
12164;DHT22;6145;50.192;10.064;2023-05-15T07:50:39;18.90;80.80
12164;DHT22;6145;50.192;10.064;2023-05-15T07:53:06;19.10;80.10
12164;DHT22;6145;50.192;10.064;2023-05-15T07:55:33;19.20;78.90
12164;DHT22;6145;50.192;10.064;2023-05-15T07:58:02;19.90;79.30
12164;DHT22;6145;50.192;10.064;2023-05-15T08:00:29;19.40;74.70
12164;DHT22;6145;50.192;10.064;2023-05-15T08:02:58;19.50;73.50
12164;DHT22;6145;50.192;10.064;2023-05-15T08:05:24;19.60;74.70
12164;DHT22;6145;50.192;10.064;2023-05-15T08:07:53;19.90;76.20
12164;DHT22;6145;50.192;10.064;2023-05-15T08:10:20;20.00;73.80
12164;DHT22;6145;50.192;10.064;2023-05-15T08:12:47;20.20;72.20
12164;DHT22;6145;50.192;10.064;2023-05-15T08:15:16;20.30;71.90
12164;DHT22;6145;50.192;10.064;2023-05-15T08:17:43;20.30;69.60
12164;DHT22;6145;50.192;10.064;2023-05-15T08:20:11;20.40;70.70
12164;DHT22;6145;50.192;10.064;2023-05-15T08:22:38;20.50;70.60
12164;DHT22;6145;50.192;10.064;2023-05-15T08:25:05;20.80;69.90
12164;DHT22;6145;50.192;10.064;2023-05-15T08:27:34;20.90;69.80
12164;DHT22;6145;50.192;10.064;2023-05-15T08:30:01;21.00;67.10
12164;DHT22;6145;50.192;10.064;2023-05-15T08:32:30;20.90;66.00
12164;DHT22;6145;50.192;10.064;2023-05-15T08:34:57;20.80;68.70
12164;DHT22;6145;50.192;10.064;2023-05-15T08:37:24;20.80;67.10
12164;DHT22;6145;50.192;10.064;2023-05-15T08:39:50;21.00;66.00
12164;DHT22;6145;50.192;10.064;2023-05-15T08:42:20;21.00;68.00
12164;DHT22;6145;50.192;10.064;2023-05-15T08:44:49;21.10;65.60
12164;DHT22;6145;50.192;10.064;2023-05-15T08:47:18;21.10;68.00
12164;DHT22;6145;50.192;10.064;2023-05-15T08:49:54;21.20;69.20
12164;DHT22;6145;50.192;10.064;2023-05-15T08:52:25;21.50;68.60
12164;DHT22;6145;50.192;10.064;2023-05-15T08:54:52;21.50;65.40
12164;DHT22;6145;50.192;10.064;2023-05-15T08:57:20;21.50;65.90
12164;DHT22;6145;50.192;10.064;2023-05-15T08:59:48;21.60;65.80
12164;DHT22;6145;50.192;10.064;2023-05-15T09:02:15;21.60;65.70
12164;DHT22;6145;50.192;10.064;2023-05-15T09:04:43;21.60;65.80
12164;DHT22;6145;50.192;10.064;2023-05-15T09:07:12;21.60;65.30
12164;DHT22;6145;50.192;10.064;2023-05-15T09:09:40;21.60;66.10
12164;DHT22;6145;50.192;10.064;2023-05-15T09:12:09;21.50;65.90
12164;DHT22;6145;50.192;10.064;2023-05-15T09:14:36;21.50;66.20
12164;DHT22;6145;50.192;10.064;2023-05-15T09:17:04;21.40;66.40
12164;DHT22;6145;50.192;10.064;2023-05-15T09:19:33;21.40;66.60
12164;DHT22;6145;50.192;10.064;2023-05-15T09:22:15;21.30;67.00
12164;DHT22;6145;50.192;10.064;2023-05-15T09:24:43;21.30;67.60
12164;DHT22;6145;50.192;10.064;2023-05-15T09:27:21;21.40;66.80
12164;DHT22;6145;50.192;10.064;2023-05-15T09:29:48;21.40;66.90
12164;DHT22;6145;50.192;10.064;2023-05-15T09:32:19;21.60;63.70
12164;DHT22;6145;50.192;10.064;2023-05-15T09:34:45;21.50;63.50
12164;DHT22;6145;50.192;10.064;2023-05-15T09:37:29;21.70;63.50
12164;DHT22;6145;50.192;10.064;2023-05-15T09:40:06;21.90;65.70
12164;DHT22;6145;50.192;10.064;2023-05-15T09:42:34;21.90;66.70
12164;DHT22;6145;50.192;10.064;2023-05-15T09:45:01;22.00;64.20
12164;DHT22;6145;50.192;10.064;2023-05-15T09:47:31;22.20;63.90
12164;DHT22;6145;50.192;10.064;2023-05-15T09:50:00;22.30;62.60
12164;DHT22;6145;50.192;10.064;2023-05-15T09:52:28;22.50;60.00
12164;DHT22;6145;50.192;10.064;2023-05-15T09:54:56;22.80;60.40
12164;DHT22;6145;50.192;10.064;2023-05-15T09:57:22;22.80;59.70
12164;DHT22;6145;50.192;10.064;2023-05-15T09:59:49;22.80;58.50
12164;DHT22;6145;50.192;10.064;2023-05-15T10:02:29;23.00;57.30
12164;DHT22;6145;50.192;10.064;2023-05-15T10:04:57;23.20;57.00
12164;DHT22;6145;50.192;10.064;2023-05-15T10:07:30;23.30;58.10
12164;DHT22;6145;50.192;10.064;2023-05-15T10:10:00;23.30;57.20
12164;DHT22;6145;50.192;10.064;2023-05-15T10:12:28;23.50;56.50
12164;DHT22;6145;50.192;10.064;2023-05-15T10:14:57;23.40;56.40
12164;DHT22;6145;50.192;10.064;2023-05-15T10:17:27;23.40;55.80
12164;DHT22;6145;50.192;10.064;2023-05-15T10:19:58;23.00;56.70
12164;DHT22;6145;50.192;10.064;2023-05-15T10:22:29;23.50;56.20
12164;DHT22;6145;50.192;10.064;2023-05-15T10:25:01;23.70;56.80
12164;DHT22;6145;50.192;10.064;2023-05-15T10:27:30;23.90;56.20
12164;DHT22;6145;50.192;10.064;2023-05-15T10:29:59;23.90;55.40
12164;DHT22;6145;50.192;10.064;2023-05-15T10:32:26;23.50;54.20
12164;DHT22;6145;50.192;10.064;2023-05-15T10:34:53;24.20;52.80
12164;DHT22;6145;50.192;10.064;2023-05-15T10:37:22;24.10;52.80
12164;DHT22;6145;50.192;10.064;2023-05-15T10:39:52;24.20;51.70
12164;DHT22;6145;50.192;10.064;2023-05-15T10:42:22;24.20;52.10
12164;DHT22;6145;50.192;10.064;2023-05-15T10:44:49;24.30;51.70
12164;DHT22;6145;50.192;10.064;2023-05-15T10:47:18;24.20;50.50
12164;DHT22;6145;50.192;10.064;2023-05-15T10:49:46;24.60;52.50
12164;DHT22;6145;50.192;10.064;2023-05-15T10:52:12;24.70;52.50
12164;DHT22;6145;50.192;10.064;2023-05-15T10:54:41;24.80;51.70
12164;DHT22;6145;50.192;10.064;2023-05-15T10:57:09;24.80;47.60
12164;DHT22;6145;50.192;10.064;2023-05-15T10:59:36;24.70;49.90
12164;DHT22;6145;50.192;10.064;2023-05-15T11:02:19;24.80;50.30
12164;DHT22;6145;50.192;10.064;2023-05-15T11:04:52;24.90;49.40
12164;DHT22;6145;50.192;10.064;2023-05-15T11:07:19;24.80;49.80
12164;DHT22;6145;50.192;10.064;2023-05-15T11:09:48;25.00;50.10
12164;DHT22;6145;50.192;10.064;2023-05-15T11:12:17;25.20;49.90
12164;DHT22;6145;50.192;10.064;2023-05-15T11:15:16;25.20;45.80
12164;DHT22;6145;50.192;10.064;2023-05-15T11:18:01;25.40;48.90
12164;DHT22;6145;50.192;10.064;2023-05-15T11:20:32;25.30;46.10
12164;DHT22;6145;50.192;10.064;2023-05-15T11:22:59;25.40;44.80
12164;DHT22;6145;50.192;10.064;2023-05-15T11:25:28;25.30;48.00
12164;DHT22;6145;50.192;10.064;2023-05-15T11:27:57;25.40;48.50
12164;DHT22;6145;50.192;10.064;2023-05-15T11:30:34;25.40;48.60
12164;DHT22;6145;50.192;10.064;2023-05-15T11:33:03;25.40;47.50
12164;DHT22;6145;50.192;10.064;2023-05-15T11:35:34;25.50;47.50
12164;DHT22;6145;50.192;10.064;2023-05-15T11:38:06;25.60;47.80
12164;DHT22;6145;50.192;10.064;2023-05-15T11:40:43;25.80;46.70
12164;DHT22;6145;50.192;10.064;2023-05-15T11:43:18;25.90;45.60
12164;DHT22;6145;50.192;10.064;2023-05-15T11:45:49;25.80;46.50
12164;DHT22;6145;50.192;10.064;2023-05-15T11:48:17;25.80;45.80
12164;DHT22;6145;50.192;10.064;2023-05-15T11:50:45;25.70;46.00
12164;DHT22;6145;50.192;10.064;2023-05-15T11:53:12;25.60;45.70
12164;DHT22;6145;50.192;10.064;2023-05-15T11:55:42;25.60;44.20
12164;DHT22;6145;50.192;10.064;2023-05-15T11:58:13;25.60;43.40
12164;DHT22;6145;50.192;10.064;2023-05-15T12:00:42;25.40;42.00
12164;DHT22;6145;50.192;10.064;2023-05-15T12:03:16;25.40;43.00
12164;DHT22;6145;50.192;10.064;2023-05-15T12:05:43;25.30;45.70
12164;DHT22;6145;50.192;10.064;2023-05-15T12:08:11;25.30;46.50
12164;DHT22;6145;50.192;10.064;2023-05-15T12:10:41;25.40;47.30
12164;DHT22;6145;50.192;10.064;2023-05-15T12:13:09;25.50;46.60
12164;DHT22;6145;50.192;10.064;2023-05-15T12:15:37;25.50;46.70
12164;DHT22;6145;50.192;10.064;2023-05-15T12:18:07;26.10;48.10
12164;DHT22;6145;50.192;10.064;2023-05-15T12:20:36;25.80;47.30
12164;DHT22;6145;50.192;10.064;2023-05-15T12:23:04;25.90;44.60
12164;DHT22;6145;50.192;10.064;2023-05-15T12:25:32;25.90;44.60
12164;DHT22;6145;50.192;10.064;2023-05-15T12:28:01;26.00;45.70
12164;DHT22;6145;50.192;10.064;2023-05-15T12:30:29;26.00;45.10
12164;DHT22;6145;50.192;10.064;2023-05-15T12:33:00;25.90;45.70
12164;DHT22;6145;50.192;10.064;2023-05-15T12:35:29;25.80;43.70
12164;DHT22;6145;50.192;10.064;2023-05-15T12:37:58;25.80;44.70
12164;DHT22;6145;50.192;10.064;2023-05-15T12:40:26;25.30;45.10
12164;DHT22;6145;50.192;10.064;2023-05-15T12:42:54;25.60;45.60
12164;DHT22;6145;50.192;10.064;2023-05-15T12:45:21;25.50;45.70
12164;DHT22;6145;50.192;10.064;2023-05-15T12:47:51;25.40;45.70
12164;DHT22;6145;50.192;10.064;2023-05-15T12:50:20;25.30;46.10
12164;DHT22;6145;50.192;10.064;2023-05-15T12:52:53;25.20;46.70
12164;DHT22;6145;50.192;10.064;2023-05-15T12:55:24;25.10;46.80
12164;DHT22;6145;50.192;10.064;2023-05-15T12:57:52;25.10;45.80
12164;DHT22;6145;50.192;10.064;2023-05-15T13:00:20;24.90;45.80
12164;DHT22;6145;50.192;10.064;2023-05-15T13:02:49;24.80;46.20
12164;DHT22;6145;50.192;10.064;2023-05-15T13:05:16;24.60;47.40
12164;DHT22;6145;50.192;10.064;2023-05-15T13:07:43;24.50;45.50
12164;DHT22;6145;50.192;10.064;2023-05-15T13:10:12;24.40;46.60
12164;DHT22;6145;50.192;10.064;2023-05-15T13:12:41;24.30;47.10
12164;DHT22;6145;50.192;10.064;2023-05-15T13:15:21;24.20;48.70
12164;DHT22;6145;50.192;10.064;2023-05-15T13:17:51;24.20;47.80
12164;DHT22;6145;50.192;10.064;2023-05-15T13:20:21;24.10;47.40
12164;DHT22;6145;50.192;10.064;2023-05-15T13:22:47;24.00;47.60
12164;DHT22;6145;50.192;10.064;2023-05-15T13:25:18;24.00;48.10
12164;DHT22;6145;50.192;10.064;2023-05-15T13:27:45;24.00;48.70
12164;DHT22;6145;50.192;10.064;2023-05-15T13:30:13;23.90;47.60
12164;DHT22;6145;50.192;10.064;2023-05-15T13:32:40;23.90;47.60
12164;DHT22;6145;50.192;10.064;2023-05-15T13:35:07;23.90;48.50
12164;DHT22;6145;50.192;10.064;2023-05-15T13:37:35;24.00;47.60
12164;DHT22;6145;50.192;10.064;2023-05-15T13:40:03;24.00;48.20
12164;DHT22;6145;50.192;10.064;2023-05-15T13:42:33;24.00;48.30
12164;DHT22;6145;50.192;10.064;2023-05-15T13:45:01;24.00;48.40
12164;DHT22;6145;50.192;10.064;2023-05-15T13:47:28;24.20;48.40
12164;DHT22;6145;50.192;10.064;2023-05-15T13:49:55;24.20;48.60
12164;DHT22;6145;50.192;10.064;2023-05-15T13:52:22;24.20;48.60
12164;DHT22;6145;50.192;10.064;2023-05-15T13:54:49;24.30;49.10
12164;DHT22;6145;50.192;10.064;2023-05-15T13:57:17;24.40;48.50
12164;DHT22;6145;50.192;10.064;2023-05-15T13:59:45;24.20;46.60
12164;DHT22;6145;50.192;10.064;2023-05-15T14:02:12;24.40;47.40
12164;DHT22;6145;50.192;10.064;2023-05-15T14:04:39;24.40;47.60
12164;DHT22;6145;50.192;10.064;2023-05-15T14:07:06;24.40;48.50
12164;DHT22;6145;50.192;10.064;2023-05-15T14:09:32;24.30;48.20
12164;DHT22;6145;50.192;10.064;2023-05-15T14:11:59;24.30;47.20
12164;DHT22;6145;50.192;10.064;2023-05-15T14:14:34;24.30;47.80
12164;DHT22;6145;50.192;10.064;2023-05-15T14:17:02;24.40;47.90
12164;DHT22;6145;50.192;10.064;2023-05-15T14:19:29;24.40;47.00
12164;DHT22;6145;50.192;10.064;2023-05-15T14:21:56;24.50;46.70
12164;DHT22;6145;50.192;10.064;2023-05-15T14:24:23;24.50;48.10
12164;DHT22;6145;50.192;10.064;2023-05-15T14:26:50;24.50;48.70
12164;DHT22;6145;50.192;10.064;2023-05-15T14:29:17;24.60;49.10
12164;DHT22;6145;50.192;10.064;2023-05-15T14:31:44;24.60;48.50
12164;DHT22;6145;50.192;10.064;2023-05-15T14:34:13;24.70;47.40
12164;DHT22;6145;50.192;10.064;2023-05-15T14:36:39;24.50;47.20
12164;DHT22;6145;50.192;10.064;2023-05-15T14:39:08;24.50;47.80
12164;DHT22;6145;50.192;10.064;2023-05-15T14:41:35;24.40;47.70
12164;DHT22;6145;50.192;10.064;2023-05-15T14:44:02;24.20;47.90
12164;DHT22;6145;50.192;10.064;2023-05-15T14:46:28;24.20;48.20
12164;DHT22;6145;50.192;10.064;2023-05-15T14:52:05;24.10;48.20
12164;DHT22;6145;50.192;10.064;2023-05-15T14:54:32;24.00;49.00
12164;DHT22;6145;50.192;10.064;2023-05-15T14:56:59;23.90;48.40
12164;DHT22;6145;50.192;10.064;2023-05-15T14:59:29;23.80;48.80
12164;DHT22;6145;50.192;10.064;2023-05-15T15:01:56;23.70;48.60
12164;DHT22;6145;50.192;10.064;2023-05-15T15:04:23;23.60;48.50
12164;DHT22;6145;50.192;10.064;2023-05-15T15:06:51;23.50;49.20
12164;DHT22;6145;50.192;10.064;2023-05-15T15:09:22;23.50;49.30
12164;DHT22;6145;50.192;10.064;2023-05-15T15:11:49;23.40;48.80
12164;DHT22;6145;50.192;10.064;2023-05-15T15:14:16;23.40;49.60
12164;DHT22;6145;50.192;10.064;2023-05-15T15:16:43;23.30;49.30
12164;DHT22;6145;50.192;10.064;2023-05-15T15:19:10;23.30;49.60
12164;DHT22;6145;50.192;10.064;2023-05-15T15:21:37;23.20;50.00
12164;DHT22;6145;50.192;10.064;2023-05-15T15:24:04;23.10;48.90
12164;DHT22;6145;50.192;10.064;2023-05-15T15:26:33;23.00;49.80
12164;DHT22;6145;50.192;10.064;2023-05-15T15:29:00;23.00;50.00
12164;DHT22;6145;50.192;10.064;2023-05-15T15:31:27;22.90;49.90
12164;DHT22;6145;50.192;10.064;2023-05-15T15:33:55;22.80;50.00
12164;DHT22;6145;50.192;10.064;2023-05-15T15:36:22;22.70;49.70
12164;DHT22;6145;50.192;10.064;2023-05-15T15:38:52;22.60;49.60
12164;DHT22;6145;50.192;10.064;2023-05-15T15:41:19;22.50;50.20
12164;DHT22;6145;50.192;10.064;2023-05-15T15:43:49;22.50;50.50
12164;DHT22;6145;50.192;10.064;2023-05-15T15:46:16;22.40;50.20
12164;DHT22;6145;50.192;10.064;2023-05-15T15:48:43;22.30;50.20